Time;durP1;ratioP1;P1;durP2;ratioP2;P2;SDS_P1;SDS_P2;PMS_P1;PMS_P2;Temp;Humidity;BMP_temperature;BMP_pressure;BME280_temperature;BME280_humidity;BME280_pressure;Samples;Min_cycle;Max_cycle;Signal;HPM_P1;HPM_P2
2024/01/05 00:02:15;;;;;;;0.00;0.00;;;12.50;78.80;;;;;;5087260;28;20210;-40
2024/01/05 00:04:42;;;;;;;0.00;0.00;;;12.40;78.80;;;;;;5077823;28;20628;-41
2024/01/05 00:07:10;;;;;;;0.00;0.00;;;12.40;78.90;;;;;;5080248;28;20292;-39
2024/01/05 00:09:38;;;;;;;0.00;0.00;;;12.40;78.90;;;;;;5081855;28;20211;-41
2024/01/05 00:12:08;;;;;;;0.00;0.00;;;12.40;78.90;;;;;;5091843;28;20224;-41
2024/01/05 00:14:38;;;;;;;0.00;0.00;;;12.40;78.90;;;;;;5075915;28;20208;-41
2024/01/05 00:17:06;;;;;;;0.00;0.00;;;12.40;78.90;;;;;;5079025;28;20293;-41
2024/01/05 00:19:35;;;;;;;0.00;0.00;;;12.30;78.70;;;;;;5087883;28;20762;-41
2024/01/05 00:22:07;;;;;;;0.00;0.00;;;12.30;78.80;;;;;;5082001;28;20638;-41
2024/01/05 00:24:37;;;;;;;0.00;0.00;;;12.30;78.80;;;;;;5077902;28;20256;-41
2024/01/05 00:27:07;;;;;;;0.00;0.00;;;12.30;78.80;;;;;;5085999;28;21093;-41
2024/01/05 00:29:36;;;;;;;0.00;0.00;;;12.30;78.80;;;;;;5085953;28;20199;-41
2024/01/05 00:32:04;;;;;;;0.00;0.00;;;12.30;78.80;;;;;;5085107;28;20290;-41
2024/01/05 00:34:33;;;;;;;0.00;0.00;;;12.30;78.90;;;;;;5085169;28;20202;-41
2024/01/05 00:37:03;;;;;;;0.00;0.00;;;12.30;78.90;;;;;;5087097;28;20222;-41
2024/01/05 00:39:33;;;;;;;0.00;0.00;;;12.30;78.90;;;;;;5086273;28;20210;-40
2024/01/05 00:42:06;;;;;;;0.00;0.00;;;12.30;78.80;;;;;;5090791;28;20252;-41
2024/01/05 00:44:33;;;;;;;0.00;0.00;;;12.30;78.80;;;;;;5091125;28;20191;-40
2024/01/05 00:47:00;;;;;;;0.00;0.00;;;12.30;78.80;;;;;;5086643;28;20788;-41
2024/01/05 00:49:27;;;;;;;0.00;0.00;;;12.30;78.80;;;;;;5085986;28;20583;-41
2024/01/05 00:51:57;;;;;;;0.00;0.00;;;12.20;78.80;;;;;;5083656;28;20211;-41
2024/01/05 00:54:25;;;;;;;0.00;0.00;;;12.30;78.70;;;;;;5084701;28;20211;-41
2024/01/05 00:56:52;;;;;;;0.00;0.00;;;12.30;78.70;;;;;;5056012;28;20683;-41
2024/01/05 00:59:19;;;;;;;0.00;0.00;;;12.20;78.80;;;;;;5073765;28;20542;-40
2024/01/05 01:01:49;;;;;;;0.00;0.00;;;12.20;78.80;;;;;;5069768;28;20204;-41
2024/01/05 01:04:18;;;;;;;0.00;0.00;;;12.20;78.80;;;;;;5069828;28;20869;-41
2024/01/05 01:06:50;;;;;;;0.00;0.00;;;12.20;78.60;;;;;;5061759;28;20309;-40
2024/01/05 01:09:22;;;;;;;0.00;0.00;;;12.20;78.60;;;;;;5089964;28;20186;-41
2024/01/05 01:11:50;;;;;;;0.00;0.00;;;12.20;78.60;;;;;;5091634;28;20214;-41
2024/01/05 01:14:22;;;;;;;0.00;0.00;;;12.20;78.60;;;;;;5073859;28;20207;-42
2024/01/05 01:16:51;;;;;;;0.00;0.00;;;12.20;78.60;;;;;;5082554;28;20206;-41
2024/01/05 01:19:18;;;;;;;0.00;0.00;;;12.20;78.50;;;;;;5087951;28;20225;-41
2024/01/05 01:21:48;;;;;;;0.00;0.00;;;12.20;78.60;;;;;;5083603;28;20550;-41
2024/01/05 01:24:20;;;;;;;0.00;0.00;;;12.10;78.60;;;;;;5069794;28;20206;-41
2024/01/05 01:26:52;;;;;;;0.00;0.00;;;12.10;78.50;;;;;;5085057;28;20788;-41
2024/01/05 01:29:21;;;;;;;0.00;0.00;;;12.10;78.50;;;;;;5083002;28;20259;-40
2024/01/05 01:31:53;;;;;;;0.00;0.00;;;12.10;78.60;;;;;;5077336;28;20204;-41
2024/01/05 01:34:22;;;;;;;0.00;0.00;;;12.10;78.40;;;;;;5087741;28;20184;-41
2024/01/05 01:36:55;;;;;;;0.00;0.00;;;12.10;78.50;;;;;;5089651;28;20211;-42
2024/01/05 01:39:25;;;;;;;0.00;0.00;;;12.00;78.20;;;;;;5088432;28;20724;-41
2024/01/05 01:41:57;;;;;;;0.00;0.00;;;12.00;78.30;;;;;;5089437;28;20586;-41
2024/01/05 01:44:27;;;;;;;0.00;0.00;;;12.00;78.40;;;;;;5086656;28;20183;-40
2024/01/05 01:46:56;;;;;;;0.00;0.00;;;12.00;78.40;;;;;;5086142;28;20337;-41
2024/01/05 01:49:26;;;;;;;0.00;0.00;;;12.00;78.50;;;;;;5056824;28;20203;-41
2024/01/05 01:51:54;;;;;;;0.00;0.00;;;12.00;78.50;;;;;;5070254;28;20252;-41
2024/01/05 01:54:24;;;;;;;0.00;0.00;;;12.00;78.50;;;;;;5054671;28;20680;-41
2024/01/05 01:56:51;;;;;;;0.00;0.00;;;12.10;78.60;;;;;;5064217;28;20294;-41
2024/01/05 01:59:25;;;;;;;0.00;0.00;;;12.00;78.20;;;;;;5076541;28;20231;-41
2024/01/05 02:01:53;;;;;;;0.00;0.00;;;12.10;78.30;;;;;;5085619;28;20252;-41
2024/01/05 02:04:22;;;;;;;0.00;0.00;;;12.10;78.40;;;;;;5052065;28;20557;-41
2024/01/05 02:06:49;;;;;;;0.00;0.00;;;12.10;78.60;;;;;;5081512;28;20280;-41
2024/01/05 02:09:17;;;;;;;0.00;0.00;;;12.10;78.40;;;;;;5074286;28;20568;-41
2024/01/05 02:11:46;;;;;;;0.00;0.00;;;12.10;78.30;;;;;;5083944;28;20203;-41
2024/01/05 02:14:16;;;;;;;0.00;0.00;;;12.10;78.40;;;;;;5080453;28;20202;-41
2024/01/05 02:16:46;;;;;;;0.00;0.00;;;12.10;78.40;;;;;;5082898;28;20191;-40
2024/01/05 02:19:13;;;;;;;0.00;0.00;;;12.10;78.50;;;;;;5068416;28;20226;-41
2024/01/05 02:21:50;;;;;;;0.00;0.00;;;12.10;78.50;;;;;;5075116;28;20201;-41
2024/01/05 02:24:17;;;;;;;0.00;0.00;;;12.10;78.40;;;;;;5087499;28;20224;-41
2024/01/05 02:26:46;;;;;;;0.00;0.00;;;12.10;78.30;;;;;;5083408;28;20226;-41
2024/01/05 02:29:20;;;;;;;0.00;0.00;;;12.10;78.30;;;;;;5073028;28;20897;-42
2024/01/05 02:31:47;;;;;;;0.00;0.00;;;12.10;78.40;;;;;;5080647;28;20309;-41
2024/01/05 02:34:14;;;;;;;0.00;0.00;;;12.10;78.30;;;;;;5073309;28;20214;-41
2024/01/05 02:36:42;;;;;;;0.00;0.00;;;12.10;78.40;;;;;;5086129;28;20656;-41
2024/01/05 02:39:13;;;;;;;0.00;0.00;;;12.10;78.30;;;;;;5085395;28;20215;-41
2024/01/05 02:41:43;;;;;;;0.00;0.00;;;12.10;78.20;;;;;;5080934;28;20604;-41
2024/01/05 02:44:12;;;;;;;0.00;0.00;;;12.10;78.10;;;;;;5086530;28;20843;-41
2024/01/05 02:46:42;;;;;;;0.00;0.00;;;12.10;77.90;;;;;;5069380;28;20203;-40
2024/01/05 02:49:14;;;;;;;0.00;0.00;;;12.10;78.10;;;;;;5071594;28;20215;-40
2024/01/05 02:51:48;;;;;;;0.00;0.00;;;12.10;78.00;;;;;;5090318;28;20660;-41
2024/01/05 02:54:18;;;;;;;0.00;0.00;;;12.10;77.80;;;;;;5092145;28;20204;-40
2024/01/05 02:56:49;;;;;;;0.00;0.00;;;12.10;77.90;;;;;;5087155;28;20305;-40
2024/01/05 02:59:17;;;;;;;0.00;0.00;;;12.00;78.00;;;;;;5091431;28;20731;-41
2024/01/05 03:01:48;;;;;;;0.00;0.00;;;12.00;77.90;;;;;;5092517;28;20229;-41
2024/01/05 03:04:17;;;;;;;0.00;0.00;;;12.00;78.00;;;;;;5092269;28;20214;-40
2024/01/05 03:06:45;;;;;;;0.00;0.00;;;12.00;78.00;;;;;;5090775;28;20644;-41
2024/01/05 03:09:13;;;;;;;0.00;0.00;;;12.00;78.00;;;;;;5091391;28;20611;-41
2024/01/05 03:11:42;;;;;;;0.00;0.00;;;12.00;77.90;;;;;;5089826;28;20206;-41
2024/01/05 03:14:10;;;;;;;0.00;0.00;;;12.00;77.90;;;;;;5073462;28;20206;-41
2024/01/05 03:16:37;;;;;;;0.00;0.00;;;12.00;78.10;;;;;;5090516;28;20288;-41
2024/01/05 03:19:04;;;;;;;0.00;0.00;;;12.00;78.00;;;;;;5089130;28;20215;-41
2024/01/05 03:21:34;;;;;;;0.00;0.00;;;11.90;78.00;;;;;;5090522;28;20202;-41
2024/01/05 03:24:04;;;;;;;0.00;0.00;;;12.00;78.60;;;;;;5091309;28;20298;-41
2024/01/05 03:26:38;;;;;;;0.00;0.00;;;12.00;77.80;;;;;;5089768;28;20282;-41
2024/01/05 03:29:10;;;;;;;0.00;0.00;;;12.00;77.60;;;;;;5076511;28;20202;-41
2024/01/05 03:31:37;;;;;;;0.00;0.00;;;12.00;77.60;;;;;;5079039;28;20207;-41
2024/01/05 03:34:07;;;;;;;0.00;0.00;;;11.90;77.70;;;;;;5075473;28;20235;-41
2024/01/05 03:36:36;;;;;;;0.00;0.00;;;12.00;77.30;;;;;;5074016;28;20279;-41
2024/01/05 03:39:08;;;;;;;0.00;0.00;;;11.90;77.20;;;;;;5091364;28;20268;-41
2024/01/05 03:41:38;;;;;;;0.00;0.00;;;11.90;77.40;;;;;;5086961;28;20540;-41
2024/01/05 03:44:05;;;;;;;0.00;0.00;;;11.90;77.60;;;;;;5088405;28;20203;-40
2024/01/05 03:46:39;;;;;;;0.00;0.00;;;11.90;77.70;;;;;;5082798;28;20554;-40
2024/01/05 03:49:07;;;;;;;0.00;0.00;;;11.90;77.70;;;;;;5079293;28;20264;-41
2024/01/05 03:51:34;;;;;;;0.00;0.00;;;11.90;77.50;;;;;;5072146;28;20203;-40
2024/01/05 03:54:01;;;;;;;0.00;0.00;;;11.90;78.40;;;;;;5086232;28;20549;-40
2024/01/05 03:56:37;;;;;;;0.00;0.00;;;11.90;77.40;;;;;;5102099;28;20207;-41
2024/01/05 03:59:09;;;;;;;0.00;0.00;;;11.90;77.50;;;;;;5086379;28;20226;-40
2024/01/05 04:01:50;;;;;;;0.00;0.00;;;11.90;77.40;;;;;;5087291;28;20199;-40
2024/01/05 04:04:20;;;;;;;0.00;0.00;;;11.90;77.50;;;;;;5086198;28;20677;-40
2024/01/05 04:06:51;;;;;;;0.00;0.00;;;11.90;77.30;;;;;;5089382;28;20349;-40
2024/01/05 04:09:18;;;;;;;0.00;0.00;;;11.90;77.30;;;;;;5088033;28;20211;-41
2024/01/05 04:11:46;;;;;;;0.00;0.00;;;11.90;77.40;;;;;;5089354;28;20207;-41
2024/01/05 04:14:13;;;;;;;0.00;0.00;;;11.90;77.60;;;;;;5089206;28;20218;-40
2024/01/05 04:16:45;;;;;;;0.00;0.00;;;11.80;77.00;;;;;;5088887;28;20199;-41
2024/01/05 04:19:13;;;;;;;0.00;0.00;;;11.80;78.00;;;;;;5088579;28;20246;-41
2024/01/05 04:21:43;;;;;;;0.00;0.00;;;11.80;77.20;;;;;;5050697;28;20581;-40
2024/01/05 04:24:11;;;;;;;0.00;0.00;;;11.80;77.20;;;;;;5074810;28;20206;-41
2024/01/05 04:26:40;;;;;;;0.00;0.00;;;11.80;77.10;;;;;;5086998;28;20284;-41
2024/01/05 04:29:10;;;;;;;0.00;0.00;;;11.80;76.60;;;;;;5085391;28;20281;-40
2024/01/05 04:31:40;;;;;;;0.00;0.00;;;11.70;76.30;;;;;;5086762;28;20309;-41
2024/01/05 04:34:10;;;;;;;0.00;0.00;;;11.70;76.70;;;;;;5084578;28;20422;-40
2024/01/05 04:36:42;;;;;;;0.00;0.00;;;11.70;76.70;;;;;;5076570;28;20218;-40
2024/01/05 04:39:10;;;;;;;0.00;0.00;;;11.60;76.20;;;;;;5069664;28;20807;-40
2024/01/05 04:41:40;;;;;;;0.00;0.00;;;11.60;76.20;;;;;;5090577;28;20207;-40
2024/01/05 04:44:09;;;;;;;0.00;0.00;;;11.50;75.70;;;;;;5090912;28;20187;-40
2024/01/05 04:46:41;;;;;;;0.00;0.00;;;11.50;75.80;;;;;;5088134;28;20218;-40
2024/01/05 04:49:09;;;;;;;0.00;0.00;;;11.40;75.60;;;;;;5090763;28;20211;-40
2024/01/05 04:51:36;;;;;;;0.00;0.00;;;11.40;75.90;;;;;;5090223;28;20983;-40
2024/01/05 04:54:04;;;;;;;0.00;0.00;;;11.30;75.10;;;;;;5087401;28;20221;-40
2024/01/05 04:56:31;;;;;;;0.00;0.00;;;11.30;75.00;;;;;;5086852;28;20234;-40
2024/01/05 04:59:07;;;;;;;0.00;0.00;;;11.20;74.70;;;;;;5089054;28;20254;-40
2024/01/05 05:01:38;;;;;;;0.00;0.00;;;11.10;74.00;;;;;;5071185;28;20198;-40
2024/01/05 05:04:13;;;;;;;0.00;0.00;;;11.10;74.70;;;;;;5083728;28;20211;-40
2024/01/05 05:06:46;;;;;;;0.00;0.00;;;11.00;74.10;;;;;;5071411;28;20981;-40
2024/01/05 05:09:15;;;;;;;0.00;0.00;;;11.00;75.00;;;;;;5086705;28;20256;-40
2024/01/05 05:11:43;;;;;;;0.00;0.00;;;10.90;75.10;;;;;;5086470;28;20230;-39
2024/01/05 05:14:10;;;;;;;0.00;0.00;;;10.90;74.70;;;;;;5086604;28;20321;-39
2024/01/05 05:16:40;;;;;;;0.00;0.00;;;10.90;75.20;;;;;;5067293;28;20555;-39
2024/01/05 05:19:09;;;;;;;0.00;0.00;;;10.80;74.30;;;;;;5079653;28;20219;-40
2024/01/05 05:21:40;;;;;;;0.00;0.00;;;10.80;75.00;;;;;;5086352;28;20191;-40
2024/01/05 05:24:07;;;;;;;0.00;0.00;;;10.80;75.50;;;;;;5070200;28;20215;-40
2024/01/05 05:26:34;;;;;;;0.00;0.00;;;10.80;75.30;;;;;;5074184;28;20735;-40
2024/01/05 05:29:06;;;;;;;0.00;0.00;;;10.80;75.00;;;;;;5077246;28;20203;-40
2024/01/05 05:31:36;;;;;;;0.00;0.00;;;10.80;74.80;;;;;;5075981;28;20737;-39
2024/01/05 05:34:04;;;;;;;0.00;0.00;;;10.80;75.90;;;;;;5082358;28;20256;-39
2024/01/05 05:36:31;;;;;;;0.00;0.00;;;10.80;74.60;;;;;;5086628;28;20211;-40
2024/01/05 05:38:58;;;;;;;0.00;0.00;;;10.80;75.00;;;;;;5086707;28;20237;-39
2024/01/05 05:41:28;;;;;;;0.00;0.00;;;10.70;74.60;;;;;;5067858;28;20226;-40
2024/01/05 05:43:58;;;;;;;0.00;0.00;;;10.70;75.10;;;;;;5068885;28;20210;-40
2024/01/05 05:46:27;;;;;;;0.00;0.00;;;10.70;75.00;;;;;;5083838;28;20200;-40
2024/01/05 05:48:54;;;;;;;0.00;0.00;;;10.70;74.60;;;;;;5081186;28;20219;-40
2024/01/05 05:51:21;;;;;;;0.00;0.00;;;10.70;75.00;;;;;;5064854;28;20202;-40
2024/01/05 05:53:51;;;;;;;0.00;0.00;;;10.70;75.10;;;;;;5082408;28;20227;-40
2024/01/05 05:56:23;;;;;;;0.00;0.00;;;10.70;75.00;;;;;;5081223;28;20404;-39
2024/01/05 05:58:53;;;;;;;0.00;0.00;;;10.70;75.10;;;;;;5063617;28;20246;-39
2024/01/05 06:01:23;;;;;;;0.00;0.00;;;10.70;75.20;;;;;;5080323;28;20201;-39
2024/01/05 06:03:55;;;;;;;0.00;0.00;;;10.70;74.60;;;;;;5066345;28;20200;-40
2024/01/05 06:06:26;;;;;;;0.00;0.00;;;10.70;75.00;;;;;;5063136;28;20231;-40
2024/01/05 06:08:56;;;;;;;0.00;0.00;;;10.70;74.60;;;;;;5072948;28;20229;-40
2024/01/05 06:11:26;;;;;;;0.00;0.00;;;10.70;74.80;;;;;;5079081;28;20196;-39
2024/01/05 06:13:55;;;;;;;0.00;0.00;;;10.60;74.60;;;;;;5084141;28;20688;-38
2024/01/05 06:16:23;;;;;;;0.00;0.00;;;10.60;74.90;;;;;;5076435;28;20219;-40
2024/01/05 06:18:50;;;;;;;0.00;0.00;;;10.60;75.10;;;;;;5084685;28;20288;-40
2024/01/05 06:21:20;;;;;;;0.00;0.00;;;10.60;75.00;;;;;;5087580;28;20190;-40
2024/01/05 06:23:51;;;;;;;0.00;0.00;;;10.60;74.40;;;;;;5087728;28;20207;-40
2024/01/05 06:26:19;;;;;;;0.00;0.00;;;10.60;74.80;;;;;;5076918;28;20302;-40
2024/01/05 06:28:48;;;;;;;0.00;0.00;;;10.60;75.00;;;;;;5064820;28;20261;-39
2024/01/05 06:31:16;;;;;;;0.00;0.00;;;10.50;75.10;;;;;;5067574;28;20203;-39
2024/01/05 06:33:45;;;;;;;0.00;0.00;;;10.50;75.20;;;;;;5066636;28;20219;-39
2024/01/05 06:36:13;;;;;;;0.00;0.00;;;10.50;74.50;;;;;;5072544;28;20203;-39
2024/01/05 06:38:42;;;;;;;0.00;0.00;;;10.50;75.00;;;;;;5078616;28;20211;-40
2024/01/05 06:41:10;;;;;;;0.00;0.00;;;10.50;74.80;;;;;;5083344;28;20705;-39
2024/01/05 06:43:37;;;;;;;0.00;0.00;;;10.50;75.00;;;;;;5081634;28;20198;-40
2024/01/05 06:46:06;;;;;;;0.00;0.00;;;10.50;74.90;;;;;;5079673;28;20191;-39
2024/01/05 06:48:38;;;;;;;0.00;0.00;;;10.50;75.00;;;;;;5086674;28;20252;-26
2024/01/05 06:51:05;;;;;;;0.00;0.00;;;10.50;74.70;;;;;;5086104;28;20207;-25
2024/01/05 06:53:35;;;;;;;0.00;0.00;;;10.40;74.80;;;;;;5079654;28;20836;-26
2024/01/05 06:56:02;;;;;;;0.00;0.00;;;10.40;74.70;;;;;;5072577;28;20203;-25
2024/01/05 06:58:34;;;;;;;0.00;0.00;;;10.40;74.80;;;;;;5086841;28;20270;-25
2024/01/05 07:01:09;;;;;;;0.00;0.00;;;10.40;75.00;;;;;;5085422;28;20226;-26
2024/01/05 07:03:36;;;;;;;0.00;0.00;;;10.40;75.10;;;;;;5083736;28;20282;-25
2024/01/05 07:06:03;;;;;;;0.00;0.00;;;10.40;75.30;;;;;;5085931;28;20276;-26
2024/01/05 07:08:35;;;;;;;0.00;0.00;;;10.30;75.30;;;;;;5087115;28;20234;-26
2024/01/05 07:11:03;;;;;;;0.00;0.00;;;10.30;76.10;;;;;;5084886;28;20681;-26
2024/01/05 07:13:30;;;;;;;0.00;0.00;;;10.30;75.10;;;;;;5077704;28;20214;-26
2024/01/05 07:15:57;;;;;;;0.00;0.00;;;10.30;75.20;;;;;;5075867;28;20961;-26
2024/01/05 07:18:26;;;;;;;0.00;0.00;;;10.30;75.50;;;;;;5085997;28;20222;-25
2024/01/05 07:20:54;;;;;;;0.00;0.00;;;10.30;75.40;;;;;;5069768;28;20195;-26
2024/01/05 07:23:21;;;;;;;0.00;0.00;;;10.20;75.40;;;;;;5083756;28;20195;-25
2024/01/05 07:25:48;;;;;;;0.00;0.00;;;10.20;75.10;;;;;;5081182;28;20199;-26
2024/01/05 07:28:18;;;;;;;0.00;0.00;;;10.20;75.20;;;;;;5079381;28;20296;-26
2024/01/05 07:30:45;;;;;;;0.00;0.00;;;10.20;75.40;;;;;;5084343;28;20195;-25
2024/01/05 07:33:15;;;;;;;0.00;0.00;;;10.10;75.10;;;;;;5080469;28;20199;-25
2024/01/05 07:35:48;;;;;;;0.00;0.00;;;10.10;75.30;;;;;;5050815;28;20653;-25
2024/01/05 07:38:18;;;;;;;0.00;0.00;;;10.10;75.30;;;;;;5087009;28;20215;-26
2024/01/05 07:40:47;;;;;;;0.00;0.00;;;10.10;75.30;;;;;;5070749;28;20191;-25
2024/01/05 07:43:14;;;;;;;0.00;0.00;;;10.00;75.10;;;;;;5080753;28;20203;-25
2024/01/05 07:45:41;;;;;;;0.00;0.00;;;10.00;75.20;;;;;;5088778;28;20215;-25
2024/01/05 07:48:11;;;;;;;0.00;0.00;;;10.00;75.20;;;;;;5075161;28;20224;-25
2024/01/05 07:50:43;;;;;;;0.00;0.00;;;10.00;75.20;;;;;;5077917;28;20219;-25
2024/01/05 07:53:12;;;;;;;0.00;0.00;;;10.00;75.20;;;;;;5087782;28;20206;-25
2024/01/05 07:55:42;;;;;;;0.00;0.00;;;9.90;75.20;;;;;;5087312;28;20214;-25
2024/01/05 07:58:09;;;;;;;0.00;0.00;;;9.90;75.10;;;;;;5089532;28;20209;-25
2024/01/05 08:00:37;;;;;;;0.00;0.00;;;9.90;75.00;;;;;;5086164;28;20321;-25
2024/01/05 08:03:05;;;;;;;0.00;0.00;;;9.80;74.80;;;;;;5087403;28;20740;-26
2024/01/05 08:05:35;;;;;;;0.00;0.00;;;9.80;75.10;;;;;;5081413;28;20301;-26
2024/01/05 08:08:05;;;;;;;0.00;0.00;;;9.80;75.10;;;;;;5083139;28;20759;-25
2024/01/05 08:10:35;;;;;;;0.00;0.00;;;9.80;75.40;;;;;;5087723;28;20333;-26
2024/01/05 08:13:02;;;;;;;0.00;0.00;;;9.80;75.40;;;;;;5080180;28;20207;-25
2024/01/05 08:15:31;;;;;;;0.00;0.00;;;9.70;75.40;;;;;;5070508;28;20203;-25
2024/01/05 08:17:59;;;;;;;0.00;0.00;;;9.70;75.40;;;;;;5074240;28;20206;-25
2024/01/05 08:20:26;;;;;;;0.00;0.00;;;9.70;75.50;;;;;;5070107;28;20228;-25
2024/01/05 08:22:56;;;;;;;0.00;0.00;;;9.70;75.60;;;;;;5068677;28;20195;-25
2024/01/05 08:25:26;;;;;;;0.00;0.00;;;9.70;75.60;;;;;;5069713;28;20246;-26
2024/01/05 08:27:55;;;;;;;0.00;0.00;;;9.70;75.60;;;;;;5087969;28;20222;-28
2024/01/05 08:30:27;;;;;;;0.00;0.00;;;9.70;75.60;;;;;;5089028;28;20219;-25
2024/01/05 08:32:57;;;;;;;0.00;0.00;;;9.70;75.60;;;;;;5088077;28;20580;-26
2024/01/05 08:35:24;;;;;;;0.00;0.00;;;9.70;75.70;;;;;;5087952;28;20201;-25
2024/01/05 08:37:51;;;;;;;0.00;0.00;;;9.70;75.80;;;;;;5082237;28;20211;-25
2024/01/05 08:40:19;;;;;;;0.00;0.00;;;9.70;75.70;;;;;;5086050;28;20215;-25
2024/01/05 08:42:48;;;;;;;0.00;0.00;;;9.70;75.60;;;;;;5081154;28;20202;-25
2024/01/05 08:45:19;;;;;;;0.00;0.00;;;9.70;75.70;;;;;;5086071;28;20253;-25
2024/01/05 08:47:49;;;;;;;0.00;0.00;;;9.70;75.80;;;;;;5077214;28;20207;-25
2024/01/05 08:50:19;;;;;;;0.00;0.00;;;9.70;75.80;;;;;;5083531;28;20719;-25
2024/01/05 08:52:49;;;;;;;0.00;0.00;;;9.70;76.70;;;;;;5083316;28;20203;-26
2024/01/05 08:55:18;;;;;;;0.00;0.00;;;9.70;75.90;;;;;;5085598;28;20759;-25
2024/01/05 08:57:49;;;;;;;0.00;0.00;;;9.70;75.90;;;;;;5086013;28;20248;-25
2024/01/05 09:00:18;;;;;;;0.00;0.00;;;9.70;76.10;;;;;;5085065;28;20234;-25
2024/01/05 09:02:48;;;;;;;0.00;0.00;;;9.70;75.90;;;;;;5086928;28;20207;-26
2024/01/05 09:05:22;;;;;;;0.00;0.00;;;9.70;76.00;;;;;;5070189;28;20292;-26
2024/01/05 09:07:54;;;;;;;0.00;0.00;;;9.70;75.90;;;;;;5081176;28;20211;-25
2024/01/05 09:10:23;;;;;;;0.00;0.00;;;9.70;75.90;;;;;;5081178;28;20296;-25
2024/01/05 09:12:51;;;;;;;0.00;0.00;;;9.70;76.00;;;;;;5080162;28;20310;-26
2024/01/05 09:15:25;;;;;;;0.00;0.00;;;9.70;76.00;;;;;;5075500;28;20219;-25
2024/01/05 09:17:55;;;;;;;0.00;0.00;;;9.70;75.90;;;;;;5066259;28;20209;-25
2024/01/05 09:20:24;;;;;;;0.00;0.00;;;9.70;76.00;;;;;;5067921;28;20251;-26
2024/01/05 09:22:51;;;;;;;0.00;0.00;;;9.70;76.00;;;;;;5083130;28;20269;-40
2024/01/05 09:25:22;;;;;;;0.00;0.00;;;9.70;76.00;;;;;;5085245;28;20204;-40
2024/01/05 09:27:51;;;;;;;0.00;0.00;;;9.80;76.00;;;;;;5073085;28;20209;-39
2024/01/05 09:30:19;;;;;;;0.00;0.00;;;9.80;76.10;;;;;;5088320;28;21122;-40
2024/01/05 09:32:48;;;;;;;0.00;0.00;;;9.80;76.20;;;;;;5086158;28;20665;-40
2024/01/05 09:35:16;;;;;;;0.00;0.00;;;9.80;76.10;;;;;;5089056;28;20302;-40
2024/01/05 09:37:43;;;;;;;0.00;0.00;;;9.80;76.10;;;;;;5086628;28;20206;-40
2024/01/05 09:40:13;;;;;;;0.00;0.00;;;9.70;76.10;;;;;;5084666;28;20251;-40
2024/01/05 09:42:51;;;;;;;0.00;0.00;;;9.70;76.10;;;;;;5069962;28;20217;-39
2024/01/05 09:45:24;;;;;;;0.00;0.00;;;9.70;76.20;;;;;;5085206;28;20226;-40
2024/01/05 09:47:51;;;;;;;0.00;0.00;;;9.70;76.20;;;;;;5083055;28;20200;-40
2024/01/05 09:50:22;;;;;;;0.00;0.00;;;9.80;76.20;;;;;;5068741;28;20218;-40
2024/01/05 09:52:57;;;;;;;0.00;0.00;;;9.80;76.30;;;;;;5071364;28;20256;-40
2024/01/05 09:55:27;;;;;;;0.00;0.00;;;9.80;76.30;;;;;;5087300;28;20680;-40
2024/01/05 09:58:01;;;;;;;0.00;0.00;;;9.80;76.30;;;;;;5079565;28;20246;-40
2024/01/05 10:00:31;;;;;;;0.00;0.00;;;9.80;76.30;;;;;;5083446;28;20229;-40
2024/01/05 10:03:07;;;;;;;0.00;0.00;;;9.80;76.30;;;;;;5088032;28;20199;-40
2024/01/05 10:05:35;;;;;;;0.00;0.00;;;9.80;76.40;;;;;;5084437;28;20239;-40
2024/01/05 10:08:10;;;;;;;0.00;0.00;;;9.80;76.50;;;;;;5083166;28;20676;-40
2024/01/05 10:10:55;;;;;;;0.00;0.00;;;9.80;76.50;;;;;;5089116;28;20852;-40
2024/01/05 10:13:25;;;;;;;0.00;0.00;;;9.90;76.50;;;;;;5087395;28;20305;-39
2024/01/05 10:15:55;;;;;;;0.00;0.00;;;9.90;76.50;;;;;;5086978;28;20194;-40
2024/01/05 10:18:24;;;;;;;0.00;0.00;;;9.90;76.50;;;;;;5082717;28;20211;-41
2024/01/05 10:20:58;;;;;;;0.00;0.00;;;9.90;76.50;;;;;;5081274;28;20223;-40
2024/01/05 10:23:28;;;;;;;0.00;0.00;;;9.80;76.30;;;;;;5072433;28;20595;-40
2024/01/05 10:25:58;;;;;;;0.00;0.00;;;9.90;76.50;;;;;;5085787;28;20633;-40
2024/01/05 10:28:32;;;;;;;0.00;0.00;;;9.90;76.50;;;;;;5083580;28;20221;-40
2024/01/05 10:31:15;;;;;;;0.00;0.00;;;9.90;76.50;;;;;;5087386;28;20860;-40
2024/01/05 10:33:54;;;;;;;0.00;0.00;;;9.90;76.50;;;;;;5069427;28;20199;-40
2024/01/05 10:36:23;;;;;;;0.00;0.00;;;9.90;76.50;;;;;;5080847;28;20302;-40
2024/01/05 10:38:53;;;;;;;0.00;0.00;;;9.90;76.50;;;;;;5086688;28;20191;-41
2024/01/05 10:41:22;;;;;;;0.00;0.00;;;9.90;76.50;;;;;;5088759;28;20215;-40
2024/01/05 10:43:58;;;;;;;0.00;0.00;;;9.90;76.40;;;;;;5076182;28;20253;-40
2024/01/05 10:46:29;;;;;;;0.00;0.00;;;9.90;76.40;;;;;;5074329;28;20234;-40
2024/01/05 10:48:59;;;;;;;0.00;0.00;;;9.90;76.30;;;;;;5075165;28;20196;-40
2024/01/05 10:51:33;;;;;;;0.00;0.00;;;9.90;76.30;;;;;;5070724;28;20741;-40
2024/01/05 10:54:01;;;;;;;0.00;0.00;;;9.90;76.40;;;;;;5080433;28;20199;-40
2024/01/05 10:56:34;;;;;;;0.00;0.00;;;9.90;76.40;;;;;;5085779;28;20203;-40
2024/01/05 10:59:01;;;;;;;0.00;0.00;;;9.90;76.60;;;;;;5077287;28;20191;-25
2024/01/05 11:01:30;;;;;;;0.00;0.00;;;9.90;76.50;;;;;;5072204;28;20680;-25
2024/01/05 11:04:02;;;;;;;0.00;0.00;;;9.90;76.60;;;;;;5082919;28;20194;-25
2024/01/05 11:06:34;;;;;;;0.00;0.00;;;9.90;76.50;;;;;;5077328;28;20247;-25
2024/01/05 11:09:07;;;;;;;0.00;0.00;;;9.90;76.50;;;;;;5069069;28;20215;-25
2024/01/05 11:11:59;;;;;;;0.00;0.00;;;9.90;76.50;;;;;;5070124;28;20223;-26
2024/01/05 11:14:47;;;;;;;0.00;0.00;;;9.90;76.50;;;;;;5073603;28;20760;-25
2024/01/05 11:17:15;;;;;;;0.00;0.00;;;9.90;76.50;;;;;;5089160;28;20260;-25
2024/01/05 11:20:12;;;;;;;0.00;0.00;;;9.90;76.50;;;;;;5090403;28;20844;-25
2024/01/05 11:22:45;;;;;;;0.00;0.00;;;9.90;76.50;;;;;;5086874;28;20194;-25
2024/01/05 11:25:18;;;;;;;0.00;0.00;;;9.90;76.50;;;;;;5087545;28;20275;-26
2024/01/05 11:27:46;;;;;;;0.00;0.00;;;9.90;76.50;;;;;;5083792;28;20191;-26
2024/01/05 11:30:40;;;;;;;0.00;0.00;;;9.90;76.50;;;;;;5089576;28;20218;-26
2024/01/05 11:33:08;;;;;;;0.00;0.00;;;9.90;76.50;;;;;;5087429;28;20203;-26
2024/01/05 11:35:43;;;;;;;0.00;0.00;;;9.90;76.50;;;;;;5089367;28;20226;-26
2024/01/05 11:38:25;;;;;;;0.00;0.00;;;9.90;76.50;;;;;;5089025;28;20280;-25
2024/01/05 11:40:52;;;;;;;0.00;0.00;;;9.90;76.50;;;;;;5087128;28;20722;-26
2024/01/05 11:43:30;;;;;;;0.00;0.00;;;9.90;76.40;;;;;;5087196;28;20199;-26
2024/01/05 11:45:59;;;;;;;0.00;0.00;;;9.90;76.50;;;;;;5078559;28;20210;-26
2024/01/05 11:48:35;;;;;;;0.00;0.00;;;9.90;77.30;;;;;;5087095;28;20665;-26
2024/01/05 11:51:12;;;;;;;0.00;0.00;;;9.90;76.50;;;;;;5089175;28;20237;-26
2024/01/05 11:53:40;;;;;;;0.00;0.00;;;9.90;76.50;;;;;;5089563;28;20307;-26
2024/01/05 11:56:11;;;;;;;0.00;0.00;;;9.90;76.50;;;;;;5086029;28;20218;-26
2024/01/05 11:58:43;;;;;;;0.00;0.00;;;9.90;76.50;;;;;;5081903;28;20215;-26
2024/01/05 12:01:16;;;;;;;0.00;0.00;;;9.90;76.50;;;;;;5089300;28;20710;-26
2024/01/05 12:03:44;;;;;;;0.00;0.00;;;10.00;76.40;;;;;;5081573;28;20214;-25
2024/01/05 12:06:13;;;;;;;0.00;0.00;;;9.90;76.20;;;;;;5087621;28;20258;-25
2024/01/05 12:08:43;;;;;;;0.00;0.00;;;9.90;76.30;;;;;;5097278;28;20206;-25
2024/01/05 12:11:15;;;;;;;0.00;0.00;;;10.00;76.40;;;;;;5093381;28;20669;-26
2024/01/05 12:13:44;;;;;;;0.00;0.00;;;10.00;76.50;;;;;;5086579;28;20207;-25
2024/01/05 12:16:13;;;;;;;0.00;0.00;;;10.00;76.50;;;;;;5083593;28;20280;-25
2024/01/05 12:18:48;;;;;;;0.00;0.00;;;10.00;76.50;;;;;;5090161;28;20223;-25
2024/01/05 12:21:21;;;;;;;0.00;0.00;;;10.00;76.30;;;;;;5087496;28;20294;-25
2024/01/05 12:23:55;;;;;;;0.00;0.00;;;10.00;76.40;;;;;;5081862;28;20188;-25
2024/01/05 12:26:24;;;;;;;0.00;0.00;;;10.00;76.40;;;;;;5067286;28;20211;-25
2024/01/05 12:28:52;;;;;;;0.00;0.00;;;10.00;76.30;;;;;;5081526;28;20627;-25
2024/01/05 12:31:20;;;;;;;0.00;0.00;;;10.00;76.30;;;;;;5066458;28;20194;-25
2024/01/05 12:33:48;;;;;;;0.00;0.00;;;10.00;76.30;;;;;;5067567;28;20211;-25
2024/01/05 12:36:29;;;;;;;0.00;0.00;;;10.00;76.30;;;;;;5059267;28;20223;-25
2024/01/05 12:39:14;;;;;;;0.00;0.00;;;10.00;76.30;;;;;;5063159;28;20208;-26
2024/01/05 12:41:47;;;;;;;0.00;0.00;;;10.00;76.40;;;;;;5083309;28;20231;-25
2024/01/05 12:44:19;;;;;;;0.00;0.00;;;10.00;76.40;;;;;;5088195;28;20211;-25
2024/01/05 12:46:46;;;;;;;0.00;0.00;;;10.00;76.60;;;;;;5084794;28;20191;-25
2024/01/05 12:49:21;;;;;;;0.00;0.00;;;10.00;76.60;;;;;;5074473;28;20253;-26
2024/01/05 12:51:52;;;;;;;0.00;0.00;;;10.00;76.40;;;;;;5056801;28;20685;-25
2024/01/05 12:54:21;;;;;;;0.00;0.00;;;10.00;76.40;;;;;;5074991;28;20311;-25
2024/01/05 12:56:54;;;;;;;0.00;0.00;;;10.00;76.40;;;;;;5070017;28;20222;-25
2024/01/05 12:59:23;;;;;;;0.00;0.00;;;10.00;76.40;;;;;;5083399;28;20658;-25
2024/01/05 13:02:02;;;;;;;0.00;0.00;;;10.00;76.10;;;;;;5087334;28;20223;-25
2024/01/05 13:04:31;;;;;;;0.00;0.00;;;10.00;76.20;;;;;;5082381;28;20203;-25
2024/01/05 13:07:08;;;;;;;0.00;0.00;;;10.00;76.30;;;;;;5053427;28;20225;-25